Terminal Aerodrome Forecast
Issued by NWS Twin Cities, MN

Home | Current Version | Previous Version | Text Only | Print | Product List | Glossary On
Versions: 1 2 3 4 5 6 7 8 9 10 11 12 13 14 15 16 17 18
000
FTUS43 KMPX 310500
TAFEAU
TAF
KEAU 310520Z 3106/0106 33011G18KT P6SM BKN045
     FM310900 34012KT P6SM SCT040
     FM311300 34014G22KT P6SM BKN035
     FM311900 36012KT P6SM SCT040
     FM312300 36004KT P6SM SKC=

USA.gov is the U.S. government's official web portal to all federal, state and local government web resources and services.